首页
METAR-TAF:

METAR-TAF

机场 :

阿勒, 土耳其

纬度: 39-39-16N, 经度: 43-01-38E, 海拔: 1665米

当前天气观测

该预报发布于15小时和9分钟前的13:50 UTC
风速1节,风向多变
温度 -6°C
湿度 73%
气压 1019 hPa
能見度: 6000
少量云层高于3500英尺

METAR: LTCO 211350Z VRB01KT 6000 FEW035 M06/M10 Q1019

时间: 07:59 (04:59 UTC)

预报

该预报发布于3小时和19分钟前的01:40 UTC
预报有效从22日的 03点(UTC)到 22日的 12点(UTC)
风速2节,风向多变
能见度10公里或以上
1500米以下无云,无积雨云

TAF: LTCO 220140Z 2203/2212 VRB02KT CAVOK

超过4000个机场的气象观测和天气预报(METAR&TAF报告)。

可查询的气象台以黄色和红色小点在地图上表示。

将鼠标移到小点上方,可查看气象台名称。

然后点击查看天气观测和预报。

如需切换地图:点击带黑十字的绿色按钮放大地图;点击带横线的绿色按钮缩小地图;或者点击绿色箭头查看邻近地区的地图。


METAR-TAF: